createdAt,value
2023-02-21T00:01:47.399Z,9.85
2023-02-21T00:04:32.690Z,9.63
2023-02-21T00:07:18.228Z,9.35
2023-02-21T00:10:03.675Z,9.05
2023-02-21T00:12:49.286Z,9.80
2023-02-21T00:15:34.743Z,9.50
2023-02-21T00:18:20.307Z,9.65
2023-02-21T00:21:05.926Z,9.88
2023-02-21T00:23:55.116Z,9.65
2023-02-21T00:26:41.082Z,10.40
2023-02-21T00:29:26.329Z,9.57
2023-02-21T00:32:12.880Z,9.98
2023-02-21T00:34:58.229Z,9.38
2023-02-21T00:37:43.511Z,9.55
2023-02-21T00:40:33.278Z,9.45
2023-02-21T00:43:18.990Z,9.88
2023-02-21T00:46:04.595Z,10.15
2023-02-21T00:48:50.587Z,9.77
2023-02-21T00:51:35.964Z,9.90
2023-02-21T00:54:21.175Z,9.52
2023-02-21T00:57:07.099Z,10.43
2023-02-21T00:59:52.447Z,10.75
2023-02-21T01:02:38.133Z,10.50
2023-02-21T01:05:24.321Z,10.18
2023-02-21T01:08:09.531Z,9.80
2023-02-21T01:10:55.058Z,9.45
2023-02-21T01:13:41.086Z,10.10
2023-02-21T01:16:27.080Z,10.30
2023-02-21T01:19:12.271Z,10.73
2023-02-21T01:21:57.724Z,10.50
2023-02-21T01:24:44.951Z,10.43
2023-02-21T01:27:30.292Z,10.70
2023-02-21T01:30:15.863Z,9.95
2023-02-21T01:33:01.094Z,10.65
2023-02-21T01:35:46.560Z,11.00
2023-02-21T01:38:31.831Z,10.57
2023-02-21T01:41:17.305Z,11.10
2023-02-21T01:44:46.404Z,11.00
2023-02-21T01:47:32.282Z,11.40
2023-02-21T01:50:19.215Z,11.73
2023-02-21T01:53:05.560Z,10.98
2023-02-21T01:55:51.454Z,11.25
2023-02-21T01:58:40.380Z,12.05
2023-02-21T02:01:27.183Z,11.80
2023-02-21T02:04:12.590Z,10.98
2023-02-21T02:06:57.923Z,11.52
2023-02-21T02:09:43.207Z,10.75
2023-02-21T02:12:33.761Z,10.73
2023-02-21T02:15:09.390Z,11.30
2023-02-21T02:17:54.727Z,11.20
2023-02-21T02:21:04.955Z,11.57
2023-02-21T02:23:55.756Z,11.85
2023-02-21T02:26:46.568Z,11.73
2023-02-21T02:29:16.215Z,12.25
2023-02-21T02:32:01.582Z,11.85
2023-02-21T02:34:47.347Z,12.18
2023-02-21T02:37:32.291Z,12.00
2023-02-21T02:40:32.057Z,11.80
2023-02-21T02:43:25.364Z,11.65
2023-02-21T02:46:13.297Z,11.82
2023-02-21T02:49:06.287Z,12.15
2023-02-21T02:51:34.349Z,12.25
2023-02-21T02:54:03.801Z,11.27
2023-02-21T02:56:30.814Z,11.70
2023-02-21T02:59:05.738Z,12.35
2023-02-21T03:01:56.224Z,12.07
2023-02-21T03:04:47.776Z,11.98
2023-02-21T03:07:53.604Z,11.60
2023-02-21T03:10:29.464Z,12.57
2023-02-21T03:13:05.753Z,12.07
2023-02-21T03:15:54.418Z,12.13
2023-02-21T03:18:28.876Z,11.90
2023-02-21T03:20:58.114Z,11.35
2023-02-21T03:23:28.702Z,11.85
2023-02-21T03:26:00.635Z,12.65
2023-02-21T03:28:28.492Z,13.00
2023-02-21T03:30:56.804Z,11.80
2023-02-21T03:33:24.125Z,12.00
2023-02-21T03:35:52.178Z,12.77
2023-02-21T03:38:19.016Z,12.07
2023-02-21T03:40:45.854Z,11.88
2023-02-21T03:43:12.749Z,11.68
2023-02-21T03:45:49.878Z,12.00
2023-02-21T03:48:30.966Z,11.75
2023-02-21T03:51:03.206Z,12.10
2023-02-21T03:53:35.519Z,11.98
2023-02-21T03:56:03.724Z,11.48
2023-02-21T03:58:46.679Z,12.10
2023-02-21T04:01:13.897Z,12.27
2023-02-21T04:03:41.027Z,11.48
2023-02-21T04:06:07.975Z,11.93
2023-02-21T04:08:34.781Z,13.02
2023-02-21T04:11:01.664Z,11.90
2023-02-21T04:13:31.918Z,11.75
2023-02-21T04:15:59.775Z,12.30
2023-02-21T04:18:26.548Z,11.63
2023-02-21T04:20:57.658Z,11.70
2023-02-21T04:23:24.529Z,11.30
2023-02-21T04:25:52.196Z,11.20
2023-02-21T04:28:32.388Z,11.63
2023-02-21T04:30:59.315Z,11.93
2023-02-21T04:33:26.251Z,12.23
2023-02-21T04:35:53.024Z,11.45
2023-02-21T04:38:24.650Z,11.95
2023-02-21T04:40:52.148Z,12.15
2023-02-21T04:43:21.068Z,11.30
2023-02-21T04:45:47.929Z,11.55
2023-02-21T04:48:15.031Z,11.55
2023-02-21T04:50:41.726Z,11.95
2023-02-21T04:53:08.513Z,11.35
2023-02-21T04:55:36.786Z,11.98
2023-02-21T04:58:03.754Z,11.55
2023-02-21T05:00:30.582Z,11.20
2023-02-21T05:02:57.394Z,11.48
2023-02-21T05:05:24.135Z,11.50
2023-02-21T05:07:50.940Z,10.30
2023-02-21T05:10:17.881Z,11.70
2023-02-21T05:12:44.889Z,11.73
2023-02-21T05:15:13.236Z,11.15
2023-02-21T05:17:40.032Z,11.10
2023-02-21T05:20:11.566Z,10.88
2023-02-21T05:22:40.344Z,12.00
2023-02-21T05:25:09.058Z,11.75
2023-02-21T05:27:35.779Z,10.88
2023-02-21T05:30:02.464Z,10.98
2023-02-21T05:32:30.067Z,11.68
2023-02-21T05:34:56.871Z,11.05
2023-02-21T05:37:23.615Z,11.70
2023-02-21T05:39:50.419Z,10.68
2023-02-21T05:42:17.381Z,11.35
2023-02-21T05:44:45.898Z,12.07
2023-02-21T05:47:16.043Z,11.20
2023-02-21T05:49:43.284Z,10.80
2023-02-21T05:52:14.483Z,11.23
2023-02-21T05:54:41.229Z,11.10
2023-02-21T05:57:07.949Z,11.18
2023-02-21T05:59:34.681Z,10.88
2023-02-21T06:02:01.456Z,10.85
2023-02-21T06:04:28.169Z,11.48
2023-02-21T06:06:54.870Z,10.93
2023-02-21T06:09:21.648Z,11.18
2023-02-21T06:11:48.354Z,10.93
2023-02-21T06:14:18.509Z,10.43
2023-02-21T06:16:45.593Z,10.23
2023-02-21T06:19:14.209Z,11.13
2023-02-21T06:21:42.044Z,10.98
2023-02-21T06:24:10.248Z,11.30
2023-02-21T06:26:37.448Z,10.80
2023-02-21T06:29:05.094Z,10.80
2023-02-21T06:31:31.944Z,10.85
2023-02-21T06:33:58.692Z,10.98
2023-02-21T06:36:28.178Z,11.25
2023-02-21T06:38:56.836Z,10.80
2023-02-21T06:41:27.044Z,11.70
2023-02-21T06:43:54.782Z,11.25
2023-02-21T06:46:25.715Z,10.68
2023-02-21T06:48:53.382Z,11.40
2023-02-21T06:51:20.448Z,10.88
2023-02-21T06:53:50.225Z,10.63
2023-02-21T06:56:17.352Z,10.43
2023-02-21T06:58:44.104Z,11.07
2023-02-21T07:01:10.937Z,11.05
2023-02-21T07:03:43.201Z,10.82
2023-02-21T07:06:10.276Z,10.55
2023-02-21T07:08:36.985Z,10.90
2023-02-21T07:11:03.984Z,11.00
2023-02-21T07:13:30.740Z,10.95
2023-02-21T07:15:57.661Z,11.27
2023-02-21T07:18:24.387Z,11.15
2023-02-21T07:20:51.108Z,11.75
2023-02-21T07:23:17.817Z,10.75
2023-02-21T07:25:44.530Z,17.33
2023-02-21T07:28:12.062Z,17.90
2023-02-21T07:30:38.964Z,18.00
2023-02-21T07:33:06.268Z,17.80
2023-02-21T07:35:33.042Z,18.35
2023-02-21T07:37:59.728Z,19.83
2023-02-21T07:40:26.426Z,19.25
2023-02-21T07:42:53.110Z,19.45
2023-02-21T07:45:20.047Z,19.77
2023-02-21T07:47:48.132Z,18.50
2023-02-21T07:50:16.058Z,16.10
2023-02-21T07:52:42.877Z,15.55
2023-02-21T07:55:09.594Z,15.23
2023-02-21T07:57:36.292Z,14.43
2023-02-21T08:00:03.897Z,13.85
2023-02-21T08:02:39.930Z,13.73
2023-02-21T08:05:07.881Z,13.02
2023-02-21T08:07:34.681Z,11.93
2023-02-21T08:10:01.388Z,10.77
2023-02-21T08:12:28.180Z,10.77
2023-02-21T08:14:54.981Z,10.45
2023-02-21T08:17:21.724Z,9.25
2023-02-21T08:19:48.432Z,9.15
2023-02-21T08:22:15.151Z,9.10
2023-02-21T08:24:41.906Z,8.95
2023-02-21T08:27:08.612Z,7.97
2023-02-21T08:29:35.329Z,8.60
2023-02-21T08:32:02.613Z,7.80
2023-02-21T08:34:29.834Z,7.97
2023-02-21T08:36:56.911Z,7.60
2023-02-21T08:39:23.918Z,7.47
2023-02-21T08:41:52.387Z,7.50
2023-02-21T08:44:21.821Z,9.47
2023-02-21T08:46:49.829Z,8.18
2023-02-21T08:49:17.072Z,8.23
2023-02-21T08:51:43.766Z,7.45
2023-02-21T08:54:10.652Z,7.47
2023-02-21T08:56:37.386Z,7.53
2023-02-21T08:59:04.669Z,7.10
2023-02-21T09:01:33.914Z,7.38
2023-02-21T09:04:01.483Z,6.50
2023-02-21T09:06:28.287Z,6.05
2023-02-21T09:10:34.173Z,12.35
2023-02-21T09:13:01.702Z,12.60
2023-02-21T09:15:28.504Z,12.73
2023-02-21T09:17:55.824Z,13.10
2023-02-21T09:20:25.059Z,13.40
2023-02-21T09:22:51.879Z,13.35
2023-02-21T09:25:22.970Z,13.43
2023-02-21T09:27:50.293Z,13.10
2023-02-21T09:30:23.666Z,12.43
2023-02-21T09:32:51.027Z,12.35
2023-02-21T09:35:18.401Z,12.32
2023-02-21T09:37:46.038Z,13.27
2023-02-21T09:40:18.214Z,12.27
2023-02-21T09:42:45.156Z,11.85
2023-02-21T09:45:38.911Z,11.60
2023-02-21T09:48:14.099Z,10.82
2023-02-21T09:50:46.520Z,11.43
2023-02-21T09:53:17.427Z,11.88
2023-02-21T09:55:44.217Z,11.40
2023-02-21T09:58:15.815Z,11.00
2023-02-21T10:00:45.395Z,11.15
2023-02-21T10:03:35.244Z,11.50
2023-02-21T10:06:03.840Z,10.20
2023-02-21T10:08:56.653Z,10.88
2023-02-21T10:12:01.241Z,11.32
2023-02-21T10:14:41.546Z,10.43
2023-02-21T10:17:44.792Z,10.63
2023-02-21T10:20:32.471Z,10.75
2023-02-21T10:23:00.535Z,10.40
2023-02-21T10:25:32.484Z,10.55
2023-02-21T10:28:00.228Z,11.02
2023-02-21T10:30:35.489Z,11.20
2023-02-21T10:33:06.696Z,10.57
2023-02-21T10:35:34.602Z,10.35
2023-02-21T10:38:02.638Z,10.65
2023-02-21T10:40:36.232Z,10.20
2023-02-21T10:43:13.044Z,10.02
2023-02-21T10:45:45.532Z,10.48
2023-02-21T10:48:14.186Z,10.40
2023-02-21T10:51:12.208Z,10.40
2023-02-21T10:53:44.087Z,10.35
2023-02-21T10:56:19.591Z,10.57
2023-02-21T10:59:08.411Z,11.65
2023-02-21T11:01:44.464Z,10.23
2023-02-21T11:04:20.525Z,10.10
2023-02-21T11:07:05.332Z,9.82
2023-02-21T11:09:46.213Z,10.82
2023-02-21T11:12:15.934Z,10.15
2023-02-21T11:14:44.585Z,9.48
2023-02-21T11:17:16.331Z,10.02
2023-02-21T11:20:08.961Z,9.57
2023-02-21T11:22:38.827Z,10.05
2023-02-21T11:25:22.252Z,8.98
2023-02-21T11:28:04.182Z,10.23
2023-02-21T11:30:34.861Z,9.82
2023-02-21T11:33:02.332Z,9.40
2023-02-21T11:35:35.522Z,9.50
2023-02-21T11:38:09.996Z,9.40
2023-02-21T11:40:49.762Z,9.75
2023-02-21T11:43:28.927Z,9.65
2023-02-21T11:46:18.460Z,9.93
2023-02-21T11:49:14.027Z,9.15
2023-02-21T11:51:47.461Z,9.43
2023-02-21T11:54:14.640Z,9.75
2023-02-21T11:56:49.534Z,9.55
2023-02-21T11:59:30.684Z,9.52
2023-02-21T12:02:03.269Z,8.63
2023-02-21T12:04:59.339Z,8.80
2023-02-21T12:07:59.128Z,9.02
2023-02-21T12:10:51.958Z,10.18
2023-02-21T12:13:44.154Z,8.80
2023-02-21T12:16:20.384Z,8.57
2023-02-21T12:18:50.117Z,9.48
2023-02-21T12:21:36.003Z,8.77
2023-02-21T12:24:11.770Z,8.90
2023-02-21T12:27:12.465Z,10.68
2023-02-21T12:29:45.044Z,10.45
2023-02-21T12:32:24.976Z,10.68
2023-02-21T12:35:05.540Z,10.98
2023-02-21T12:38:04.206Z,10.25
2023-02-21T12:41:02.022Z,9.87
2023-02-21T12:43:51.911Z,9.80
2023-02-21T12:46:18.630Z,10.00
2023-02-21T12:49:13.962Z,9.52
2023-02-21T12:52:00.043Z,9.80
2023-02-21T12:54:57.423Z,9.02
2023-02-21T12:57:56.965Z,8.75
2023-02-21T13:03:01.274Z,8.85
2023-02-21T13:05:39.761Z,9.25
2023-02-21T13:08:26.515Z,9.63
2023-02-21T13:11:17.328Z,8.70
2023-02-21T13:13:44.308Z,8.85
2023-02-21T13:16:13.158Z,8.73
2023-02-21T13:18:44.464Z,8.60
2023-02-21T13:21:14.576Z,8.85
2023-02-21T13:23:51.879Z,8.32
2023-02-21T13:27:07.877Z,8.65
2023-02-21T13:29:39.093Z,8.15
2023-02-21T13:32:12.616Z,8.43
2023-02-21T13:34:47.180Z,7.72
2023-02-21T13:37:23.069Z,8.63
2023-02-21T13:39:54.117Z,8.57
2023-02-21T13:42:24.151Z,8.02
2023-02-21T13:45:14.369Z,7.93
2023-02-21T13:47:53.352Z,7.63
2023-02-21T13:50:38.635Z,8.15
2023-02-21T13:53:08.598Z,8.35
2023-02-21T13:55:36.401Z,7.40
2023-02-21T13:58:04.904Z,7.18
2023-02-21T14:00:31.628Z,7.90
2023-02-21T14:03:18.906Z,7.50
2023-02-21T14:05:50.060Z,7.43
2023-02-21T14:08:23.287Z,7.18
2023-02-21T14:10:53.121Z,7.78
2023-02-21T14:13:22.890Z,7.35
2023-02-21T14:15:56.897Z,7.35
2023-02-21T14:18:32.270Z,7.50
2023-02-21T14:20:59.511Z,7.43
2023-02-21T14:23:38.120Z,7.47
2023-02-21T14:26:05.659Z,7.50
2023-02-21T14:28:56.537Z,7.25
2023-02-21T14:32:02.189Z,6.78
2023-02-21T14:34:47.533Z,6.88
2023-02-21T14:37:35.777Z,6.55
2023-02-21T14:40:14.678Z,7.45
2023-02-21T14:43:02.563Z,7.20
2023-02-21T14:45:49.559Z,7.45
2023-02-21T14:48:48.914Z,7.28
2023-02-21T14:51:35.876Z,6.80
2023-02-21T14:54:22.244Z,7.20
2023-02-21T14:57:00.394Z,7.70
2023-02-21T14:59:30.580Z,7.03
2023-02-21T15:02:26.005Z,8.07
2023-02-21T15:04:58.540Z,7.47
2023-02-21T15:07:39.177Z,7.93
2023-02-21T15:10:16.329Z,8.10
2023-02-21T15:12:48.047Z,8.25
2023-02-21T15:15:18.746Z,8.77
2023-02-21T15:17:54.377Z,8.60
2023-02-21T15:20:21.124Z,8.00
2023-02-21T15:23:31.622Z,8.38
2023-02-21T15:26:00.877Z,8.23
2023-02-21T15:28:32.358Z,7.93
2023-02-21T15:31:08.676Z,8.02
2023-02-21T15:33:37.756Z,7.55
2023-02-21T15:36:23.565Z,7.90
2023-02-21T15:39:03.505Z,7.97
2023-02-21T15:41:41.824Z,7.78
2023-02-21T15:44:19.048Z,8.05
2023-02-21T15:46:54.165Z,7.43
2023-02-21T15:49:50.969Z,8.15
2023-02-21T15:52:48.709Z,7.25
2023-02-21T15:55:28.209Z,7.75
2023-02-21T16:00:38.927Z,7.45
2023-02-21T16:03:29.206Z,7.45
2023-02-21T16:06:08.469Z,7.03
2023-02-21T16:08:38.153Z,7.25
2023-02-21T16:11:05.029Z,7.10
2023-02-21T16:13:39.443Z,7.10
2023-02-21T16:16:06.517Z,6.85
2023-02-21T16:18:33.514Z,6.85
2023-02-21T16:21:04.078Z,7.30
2023-02-21T16:23:44.936Z,7.05
2023-02-21T16:26:16.613Z,6.72
2023-02-21T16:28:44.514Z,7.20
2023-02-21T16:31:31.412Z,7.07
2023-02-21T16:34:00.388Z,7.22
2023-02-21T16:36:29.581Z,7.13
2023-02-21T16:38:57.268Z,6.95
2023-02-21T16:41:24.671Z,7.60
2023-02-21T16:43:51.587Z,7.55
2023-02-21T16:46:26.559Z,6.70
2023-02-21T16:48:55.619Z,7.03
2023-02-21T16:51:23.261Z,7.10
2023-02-21T16:53:49.972Z,7.20
2023-02-21T16:56:16.966Z,7.30
2023-02-21T16:58:50.394Z,7.18
2023-02-21T17:01:30.329Z,7.15
2023-02-21T17:03:57.100Z,6.82
2023-02-21T17:06:26.357Z,7.15
2023-02-21T17:08:53.298Z,7.03
2023-02-21T17:11:20.235Z,7.18
2023-02-21T17:13:47.160Z,6.95
2023-02-21T17:16:14.228Z,7.05
2023-02-21T17:18:41.261Z,7.30
2023-02-21T17:21:08.085Z,7.82
2023-02-21T17:23:34.809Z,7.15
2023-02-21T17:26:01.768Z,7.13
2023-02-21T17:28:28.542Z,8.68
2023-02-21T17:30:56.436Z,8.27
2023-02-21T17:33:23.400Z,8.05
2023-02-21T17:35:52.276Z,7.85
2023-02-21T17:38:19.032Z,8.65
2023-02-21T17:40:46.483Z,7.45
2023-02-21T17:43:16.134Z,8.32
2023-02-21T17:45:42.952Z,8.05
2023-02-21T17:48:09.730Z,7.93
2023-02-21T17:50:36.454Z,8.13
2023-02-21T17:53:03.273Z,7.65
2023-02-21T17:55:30.235Z,8.25
2023-02-21T17:57:57.542Z,7.80
2023-02-21T18:00:26.618Z,8.45
2023-02-21T18:02:54.830Z,7.35
2023-02-21T18:05:24.091Z,7.72
2023-02-21T18:07:52.495Z,7.95
2023-02-21T18:10:22.051Z,8.07
2023-02-21T18:15:20.582Z,8.50
2023-02-21T18:17:47.399Z,8.20
2023-02-21T18:20:15.922Z,8.45
2023-02-21T18:22:43.222Z,8.07
2023-02-21T18:25:10.428Z,8.23
2023-02-21T18:27:37.431Z,8.32
2023-02-21T18:30:04.906Z,8.73
2023-02-21T18:32:31.738Z,8.00
2023-02-21T18:35:00.571Z,8.20
2023-02-21T18:37:27.610Z,8.63
2023-02-21T18:39:55.135Z,8.35
2023-02-21T18:42:23.941Z,8.32
2023-02-21T18:44:51.560Z,8.27
2023-02-21T18:47:19.402Z,8.88
2023-02-21T18:49:48.032Z,8.32
2023-02-21T18:52:15.999Z,8.38
2023-02-21T18:54:48.678Z,9.45
2023-02-21T18:57:20.637Z,8.48
2023-02-21T18:59:47.437Z,8.88
2023-02-21T19:02:16.930Z,9.02
2023-02-21T19:04:44.201Z,8.93
2023-02-21T19:07:16.856Z,9.57
2023-02-21T19:09:50.301Z,8.82
2023-02-21T19:12:18.076Z,8.68
2023-02-21T19:14:44.971Z,10.10
2023-02-21T19:17:11.689Z,9.02
2023-02-21T19:19:39.028Z,9.48
2023-02-21T19:22:06.317Z,9.43
2023-02-21T19:24:33.167Z,8.90
2023-02-21T19:27:00.275Z,9.32
2023-02-21T19:29:27.131Z,9.45
2023-02-21T19:31:54.207Z,9.05
2023-02-21T19:34:21.009Z,8.73
2023-02-21T19:36:48.667Z,8.68
2023-02-21T19:39:15.672Z,8.82
2023-02-21T19:41:45.899Z,9.20
2023-02-21T19:44:13.843Z,8.30
2023-02-21T19:46:40.678Z,8.85
2023-02-21T19:49:17.766Z,9.27
2023-02-21T19:51:45.908Z,8.60
2023-02-21T19:54:13.917Z,8.60
2023-02-21T19:56:40.685Z,8.95
2023-02-21T19:59:07.949Z,9.27
2023-02-21T20:01:35.912Z,8.95
2023-02-21T20:04:05.313Z,9.52
2023-02-21T20:06:37.473Z,8.80
2023-02-21T20:09:06.702Z,8.73
2023-02-21T20:11:33.450Z,8.88
2023-02-21T20:14:00.391Z,8.75
2023-02-21T20:16:29.485Z,9.70
2023-02-21T20:18:57.467Z,8.52
2023-02-21T20:21:26.968Z,9.27
2023-02-21T20:23:55.379Z,9.32
2023-02-21T20:26:23.327Z,9.45
2023-02-21T20:28:51.438Z,9.00
2023-02-21T20:31:20.286Z,9.25
2023-02-21T20:33:48.123Z,9.32
2023-02-21T20:36:15.535Z,9.07
2023-02-21T20:38:42.406Z,9.05
2023-02-21T20:41:13.926Z,9.35
2023-02-21T20:43:41.165Z,9.20
2023-02-21T20:46:10.143Z,9.55
2023-02-21T20:48:38.284Z,9.02
2023-02-21T20:51:06.445Z,9.02
2023-02-21T20:53:33.366Z,8.77
2023-02-21T20:56:00.214Z,8.85
2023-02-21T20:58:26.999Z,9.23
2023-02-21T21:00:53.828Z,9.45
2023-02-21T21:03:20.585Z,9.20
2023-02-21T21:05:48.127Z,8.93
2023-02-21T21:08:14.989Z,9.18
2023-02-21T21:10:42.278Z,8.15
2023-02-21T21:13:09.107Z,9.00
2023-02-21T21:15:35.892Z,8.23
2023-02-21T21:18:02.601Z,8.77
2023-02-21T21:20:30.873Z,9.77
2023-02-21T21:22:57.605Z,8.93
2023-02-21T21:25:24.371Z,9.23
2023-02-21T21:27:52.026Z,9.05
2023-02-21T21:30:22.564Z,9.02
2023-02-21T21:32:49.760Z,8.95
2023-02-21T21:35:19.723Z,9.13
2023-02-21T21:37:48.262Z,8.77
2023-02-21T21:40:17.733Z,9.25
2023-02-21T21:42:48.817Z,9.18
2023-02-21T21:45:22.588Z,8.93
2023-02-21T21:47:52.087Z,8.73
2023-02-21T21:50:20.461Z,9.45
2023-02-21T21:52:53.296Z,9.07
2023-02-21T21:55:24.351Z,8.90
2023-02-21T21:57:53.488Z,8.82
2023-02-21T22:00:24.007Z,8.65
2023-02-21T22:02:56.977Z,9.05
2023-02-21T22:05:28.697Z,9.15
2023-02-21T22:07:58.396Z,8.65
2023-02-21T22:10:26.100Z,8.77
2023-02-21T22:12:55.987Z,8.73
2023-02-21T22:15:25.068Z,9.18
2023-02-21T22:17:51.896Z,9.15
2023-02-21T22:20:21.779Z,8.88
2023-02-21T22:22:50.224Z,8.75
2023-02-21T22:25:19.032Z,8.88
2023-02-21T22:27:48.941Z,9.55
2023-02-21T22:30:17.953Z,9.25
2023-02-21T22:32:45.800Z,9.55
2023-02-21T22:35:18.317Z,9.02
2023-02-21T22:37:51.858Z,9.25
2023-02-21T22:40:25.275Z,9.30
2023-02-21T22:42:54.356Z,9.60
2023-02-21T22:45:23.094Z,9.30
2023-02-21T22:47:51.097Z,9.53
2023-02-21T22:50:20.263Z,9.85
2023-02-21T22:52:58.774Z,8.95
2023-02-21T22:55:26.480Z,9.30
2023-02-21T22:57:54.952Z,9.43
2023-02-21T23:00:24.943Z,9.60
2023-02-21T23:02:52.724Z,9.45
2023-02-21T23:05:21.551Z,8.98
2023-02-21T23:07:50.068Z,9.83
2023-02-21T23:10:23.569Z,9.15
2023-02-21T23:12:53.264Z,9.20
2023-02-21T23:15:21.293Z,9.80
2023-02-21T23:17:49.578Z,10.05
2023-02-21T23:20:22.224Z,9.23
2023-02-21T23:22:52.293Z,9.57
2023-02-21T23:25:23.008Z,10.05
2023-02-21T23:27:55.941Z,9.82
2023-02-21T23:30:27.893Z,10.07
2023-02-21T23:32:55.739Z,9.90
2023-02-21T23:35:22.869Z,10.00
2023-02-21T23:37:53.183Z,10.00
2023-02-21T23:40:22.305Z,9.85
2023-02-21T23:42:51.512Z,10.02
2023-02-21T23:45:23.105Z,10.95
2023-02-21T23:47:55.450Z,9.75
2023-02-21T23:50:30.351Z,10.40
2023-02-21T23:52:59.183Z,10.45
2023-02-21T23:55:29.052Z,10.70
2023-02-21T23:57:59.842Z,10.60
